sensor_id;sensor_type;location;lat;lon;timestamp;P1;durP1;ratioP1;P2;durP2;ratioP2
76863;SDS011;65834;52.364;9.754;2022-12-07T00:00:24;26.63;;;12.90;;
76863;SDS011;65834;52.364;9.754;2022-12-07T00:02:53;25.93;;;14.00;;
76863;SDS011;65834;52.364;9.754;2022-12-07T00:05:25;23.70;;;11.97;;
76863;SDS011;65834;52.364;9.754;2022-12-07T00:07:55;25.38;;;12.18;;
76863;SDS011;65834;52.364;9.754;2022-12-07T00:10:24;30.13;;;15.10;;
76863;SDS011;65834;52.364;9.754;2022-12-07T00:12:54;27.33;;;13.23;;
76863;SDS011;65834;52.364;9.754;2022-12-07T00:15:23;26.77;;;13.60;;
76863;SDS011;65834;52.364;9.754;2022-12-07T00:17:53;25.93;;;12.30;;
76863;SDS011;65834;52.364;9.754;2022-12-07T00:20:23;26.00;;;12.40;;
76863;SDS011;65834;52.364;9.754;2022-12-07T00:22:55;24.58;;;11.93;;
76863;SDS011;65834;52.364;9.754;2022-12-07T00:25:24;27.80;;;14.17;;
76863;SDS011;65834;52.364;9.754;2022-12-07T00:27:54;25.17;;;13.70;;
76863;SDS011;65834;52.364;9.754;2022-12-07T00:30:25;24.63;;;13.03;;
76863;SDS011;65834;52.364;9.754;2022-12-07T00:32:55;23.47;;;11.67;;
76863;SDS011;65834;52.364;9.754;2022-12-07T00:35:27;26.10;;;12.70;;
76863;SDS011;65834;52.364;9.754;2022-12-07T00:37:57;24.60;;;12.02;;
76863;SDS011;65834;52.364;9.754;2022-12-07T00:40:26;26.60;;;11.87;;
76863;SDS011;65834;52.364;9.754;2022-12-07T00:42:56;27.87;;;14.03;;
76863;SDS011;65834;52.364;9.754;2022-12-07T00:45:25;24.47;;;12.10;;
76863;SDS011;65834;52.364;9.754;2022-12-07T00:47:55;23.47;;;12.20;;
76863;SDS011;65834;52.364;9.754;2022-12-07T00:50:27;22.67;;;11.20;;
76863;SDS011;65834;52.364;9.754;2022-12-07T00:52:56;24.08;;;12.35;;
76863;SDS011;65834;52.364;9.754;2022-12-07T00:55:26;23.17;;;11.83;;
76863;SDS011;65834;52.364;9.754;2022-12-07T00:57:55;24.30;;;11.83;;
76863;SDS011;65834;52.364;9.754;2022-12-07T01:00:25;25.20;;;12.10;;
76863;SDS011;65834;52.364;9.754;2022-12-07T01:02:55;24.70;;;12.07;;
76863;SDS011;65834;52.364;9.754;2022-12-07T01:05:27;24.03;;;12.87;;
76863;SDS011;65834;52.364;9.754;2022-12-07T01:07:56;21.92;;;11.18;;
76863;SDS011;65834;52.364;9.754;2022-12-07T01:10:26;24.20;;;11.77;;
76863;SDS011;65834;52.364;9.754;2022-12-07T01:12:57;22.13;;;11.47;;
76863;SDS011;65834;52.364;9.754;2022-12-07T01:15:27;25.43;;;12.67;;
76863;SDS011;65834;52.364;9.754;2022-12-07T01:17:56;24.40;;;12.77;;
76863;SDS011;65834;52.364;9.754;2022-12-07T01:20:28;23.17;;;11.87;;
76863;SDS011;65834;52.364;9.754;2022-12-07T01:22:58;24.95;;;13.30;;
76863;SDS011;65834;52.364;9.754;2022-12-07T01:25:28;25.47;;;13.87;;
76863;SDS011;65834;52.364;9.754;2022-12-07T01:27:57;26.37;;;13.73;;
76863;SDS011;65834;52.364;9.754;2022-12-07T01:30:27;27.80;;;13.37;;
76863;SDS011;65834;52.364;9.754;2022-12-07T01:32:56;23.27;;;14.07;;
76863;SDS011;65834;52.364;9.754;2022-12-07T01:35:29;23.70;;;13.27;;
76863;SDS011;65834;52.364;9.754;2022-12-07T01:37:58;25.88;;;13.52;;
76863;SDS011;65834;52.364;9.754;2022-12-07T01:40:27;25.07;;;12.47;;
76863;SDS011;65834;52.364;9.754;2022-12-07T01:42:57;26.43;;;15.63;;
76863;SDS011;65834;52.364;9.754;2022-12-07T01:48:12;24.07;;;13.90;;
76863;SDS011;65834;52.364;9.754;2022-12-07T01:50:48;25.97;;;13.57;;
76863;SDS011;65834;52.364;9.754;2022-12-07T01:53:20;25.27;;;13.20;;
76863;SDS011;65834;52.364;9.754;2022-12-07T01:55:53;24.07;;;14.13;;
76863;SDS011;65834;52.364;9.754;2022-12-07T01:58:24;23.30;;;13.23;;
76863;SDS011;65834;52.364;9.754;2022-12-07T02:00:54;24.63;;;13.07;;
76863;SDS011;65834;52.364;9.754;2022-12-07T02:03:25;23.67;;;14.17;;
76863;SDS011;65834;52.364;9.754;2022-12-07T02:06:03;23.90;;;12.93;;
76863;SDS011;65834;52.364;9.754;2022-12-07T02:08:34;24.57;;;12.93;;
76863;SDS011;65834;52.364;9.754;2022-12-07T02:11:04;27.07;;;14.13;;
76863;SDS011;65834;52.364;9.754;2022-12-07T02:13:37;23.58;;;13.15;;
76863;SDS011;65834;52.364;9.754;2022-12-07T02:16:11;25.70;;;12.77;;
76863;SDS011;65834;52.364;9.754;2022-12-07T02:18:55;24.13;;;11.87;;
76863;SDS011;65834;52.364;9.754;2022-12-07T02:21:40;22.30;;;13.00;;
76863;SDS011;65834;52.364;9.754;2022-12-07T02:24:16;26.20;;;13.70;;
76863;SDS011;65834;52.364;9.754;2022-12-07T02:27:03;24.60;;;13.10;;
76863;SDS011;65834;52.364;9.754;2022-12-07T02:29:49;25.77;;;13.77;;
76863;SDS011;65834;52.364;9.754;2022-12-07T02:32:27;24.40;;;13.13;;
76863;SDS011;65834;52.364;9.754;2022-12-07T02:35:08;28.40;;;14.70;;
76863;SDS011;65834;52.364;9.754;2022-12-07T02:37:41;25.30;;;13.60;;
76863;SDS011;65834;52.364;9.754;2022-12-07T02:40:17;27.57;;;14.37;;
76863;SDS011;65834;52.364;9.754;2022-12-07T02:42:50;24.00;;;13.15;;
76863;SDS011;65834;52.364;9.754;2022-12-07T02:45:26;22.93;;;12.47;;
76863;SDS011;65834;52.364;9.754;2022-12-07T02:47:59;24.57;;;12.90;;
76863;SDS011;65834;52.364;9.754;2022-12-07T02:50:29;26.50;;;14.83;;
76863;SDS011;65834;52.364;9.754;2022-12-07T02:52:59;25.23;;;13.23;;
76863;SDS011;65834;52.364;9.754;2022-12-07T02:55:29;23.87;;;11.47;;
76863;SDS011;65834;52.364;9.754;2022-12-07T02:58:06;23.77;;;12.07;;
76863;SDS011;65834;52.364;9.754;2022-12-07T03:03:21;24.73;;;12.47;;
76863;SDS011;65834;52.364;9.754;2022-12-07T03:05:54;24.33;;;11.67;;
76863;SDS011;65834;52.364;9.754;2022-12-07T03:08:37;23.27;;;11.27;;
76863;SDS011;65834;52.364;9.754;2022-12-07T03:11:14;23.53;;;11.57;;
76863;SDS011;65834;52.364;9.754;2022-12-07T03:13:51;23.63;;;11.83;;
76863;SDS011;65834;52.364;9.754;2022-12-07T03:16:33;23.30;;;11.43;;
76863;SDS011;65834;52.364;9.754;2022-12-07T03:19:07;19.77;;;10.57;;
76863;SDS011;65834;52.364;9.754;2022-12-07T03:21:43;22.10;;;11.63;;
76863;SDS011;65834;52.364;9.754;2022-12-07T03:24:17;23.13;;;12.20;;
76863;SDS011;65834;52.364;9.754;2022-12-07T03:26:50;20.40;;;11.10;;
76863;SDS011;65834;52.364;9.754;2022-12-07T03:29:24;21.50;;;11.03;;
76863;SDS011;65834;52.364;9.754;2022-12-07T03:32:00;19.90;;;10.00;;
76863;SDS011;65834;52.364;9.754;2022-12-07T03:34:35;19.93;;;9.43;;
76863;SDS011;65834;52.364;9.754;2022-12-07T03:37:10;21.27;;;10.80;;
76863;SDS011;65834;52.364;9.754;2022-12-07T03:39:45;23.00;;;10.23;;
76863;SDS011;65834;52.364;9.754;2022-12-07T03:42:27;19.83;;;9.13;;
76863;SDS011;65834;52.364;9.754;2022-12-07T03:44:56;18.87;;;8.83;;
76863;SDS011;65834;52.364;9.754;2022-12-07T03:47:29;22.00;;;9.87;;
76863;SDS011;65834;52.364;9.754;2022-12-07T03:50:04;19.60;;;9.47;;
76863;SDS011;65834;52.364;9.754;2022-12-07T03:52:39;17.33;;;8.27;;
76863;SDS011;65834;52.364;9.754;2022-12-07T03:55:14;18.13;;;8.77;;
76863;SDS011;65834;52.364;9.754;2022-12-07T03:57:49;18.30;;;9.33;;
76863;SDS011;65834;52.364;9.754;2022-12-07T04:00:23;18.87;;;8.53;;
76863;SDS011;65834;52.364;9.754;2022-12-07T04:02:56;20.00;;;8.93;;
76863;SDS011;65834;52.364;9.754;2022-12-07T04:05:26;18.52;;;8.52;;
76863;SDS011;65834;52.364;9.754;2022-12-07T04:07:55;19.93;;;9.00;;
76863;SDS011;65834;52.364;9.754;2022-12-07T04:10:25;18.40;;;8.03;;
76863;SDS011;65834;52.364;9.754;2022-12-07T04:12:55;21.33;;;9.30;;
76863;SDS011;65834;52.364;9.754;2022-12-07T04:15:24;18.77;;;8.97;;
76863;SDS011;65834;52.364;9.754;2022-12-07T04:17:56;20.60;;;9.20;;
76863;SDS011;65834;52.364;9.754;2022-12-07T04:20:26;19.17;;;9.52;;
76863;SDS011;65834;52.364;9.754;2022-12-07T04:22:55;22.13;;;8.73;;
76863;SDS011;65834;52.364;9.754;2022-12-07T04:25:25;19.70;;;9.00;;
76863;SDS011;65834;52.364;9.754;2022-12-07T04:27:54;19.60;;;9.10;;
76863;SDS011;65834;52.364;9.754;2022-12-07T04:30:24;20.80;;;10.07;;
76863;SDS011;65834;52.364;9.754;2022-12-07T04:32:54;21.03;;;9.90;;
76863;SDS011;65834;52.364;9.754;2022-12-07T04:35:26;20.00;;;9.30;;
76863;SDS011;65834;52.364;9.754;2022-12-07T04:37:55;18.80;;;8.93;;
76863;SDS011;65834;52.364;9.754;2022-12-07T04:40:25;18.63;;;8.17;;
76863;SDS011;65834;52.364;9.754;2022-12-07T04:42:54;22.27;;;9.53;;
76863;SDS011;65834;52.364;9.754;2022-12-07T04:45:24;21.53;;;8.83;;
76863;SDS011;65834;52.364;9.754;2022-12-07T04:47:53;21.67;;;9.33;;
76863;SDS011;65834;52.364;9.754;2022-12-07T04:50:25;21.53;;;9.03;;
76863;SDS011;65834;52.364;9.754;2022-12-07T04:52:55;22.05;;;9.02;;
76863;SDS011;65834;52.364;9.754;2022-12-07T04:55:24;17.93;;;8.50;;
76863;SDS011;65834;52.364;9.754;2022-12-07T04:57:54;18.07;;;8.30;;
76863;SDS011;65834;52.364;9.754;2022-12-07T05:00:23;20.03;;;8.27;;
76863;SDS011;65834;52.364;9.754;2022-12-07T05:02:53;19.37;;;7.83;;
76863;SDS011;65834;52.364;9.754;2022-12-07T05:05:25;20.30;;;7.50;;
76863;SDS011;65834;52.364;9.754;2022-12-07T05:07:54;18.00;;;7.78;;
76863;SDS011;65834;52.364;9.754;2022-12-07T05:10:24;19.30;;;8.13;;
76863;SDS011;65834;52.364;9.754;2022-12-07T05:12:53;22.80;;;9.23;;
76863;SDS011;65834;52.364;9.754;2022-12-07T05:15:23;22.73;;;9.40;;
76863;SDS011;65834;52.364;9.754;2022-12-07T05:17:52;18.40;;;7.80;;
76863;SDS011;65834;52.364;9.754;2022-12-07T05:20:24;21.20;;;8.67;;
76863;SDS011;65834;52.364;9.754;2022-12-07T05:22:54;23.95;;;8.75;;
76863;SDS011;65834;52.364;9.754;2022-12-07T05:25:24;19.33;;;7.50;;
76863;SDS011;65834;52.364;9.754;2022-12-07T05:27:54;21.00;;;7.80;;
76863;SDS011;65834;52.364;9.754;2022-12-07T05:30:24;19.43;;;7.93;;
76863;SDS011;65834;52.364;9.754;2022-12-07T05:32:54;19.80;;;7.50;;
76863;SDS011;65834;52.364;9.754;2022-12-07T05:35:26;20.10;;;7.17;;
76863;SDS011;65834;52.364;9.754;2022-12-07T05:37:56;20.70;;;7.43;;
76863;SDS011;65834;52.364;9.754;2022-12-07T05:40:26;19.53;;;7.27;;
76863;SDS011;65834;52.364;9.754;2022-12-07T05:42:55;18.87;;;6.83;;
76863;SDS011;65834;52.364;9.754;2022-12-07T05:45:29;19.97;;;6.97;;
76863;SDS011;65834;52.364;9.754;2022-12-07T05:47:59;18.93;;;6.70;;
76863;SDS011;65834;52.364;9.754;2022-12-07T05:50:31;18.50;;;7.27;;
76863;SDS011;65834;52.364;9.754;2022-12-07T05:53:01;17.55;;;6.47;;
76863;SDS011;65834;52.364;9.754;2022-12-07T05:55:30;18.07;;;6.93;;
76863;SDS011;65834;52.364;9.754;2022-12-07T05:58:00;18.30;;;7.13;;
76863;SDS011;65834;52.364;9.754;2022-12-07T06:00:42;18.87;;;6.40;;
76863;SDS011;65834;52.364;9.754;2022-12-07T06:03:16;16.63;;;6.10;;
76863;SDS011;65834;52.364;9.754;2022-12-07T06:05:48;18.03;;;7.20;;
76863;SDS011;65834;52.364;9.754;2022-12-07T06:08:18;18.23;;;7.45;;
76863;SDS011;65834;52.364;9.754;2022-12-07T06:10:48;18.13;;;6.83;;
76863;SDS011;65834;52.364;9.754;2022-12-07T06:13:39;19.37;;;6.13;;
76863;SDS011;65834;52.364;9.754;2022-12-07T06:16:12;17.83;;;7.00;;
76863;SDS011;65834;52.364;9.754;2022-12-07T06:18:42;17.33;;;5.60;;
76863;SDS011;65834;52.364;9.754;2022-12-07T06:21:14;16.10;;;6.90;;
76863;SDS011;65834;52.364;9.754;2022-12-07T06:23:44;15.18;;;5.88;;
76863;SDS011;65834;52.364;9.754;2022-12-07T06:26:14;19.93;;;7.20;;
76863;SDS011;65834;52.364;9.754;2022-12-07T06:28:44;17.17;;;6.73;;
76863;SDS011;65834;52.364;9.754;2022-12-07T06:31:14;15.03;;;5.83;;
76863;SDS011;65834;52.364;9.754;2022-12-07T06:33:44;16.03;;;5.47;;
76863;SDS011;65834;52.364;9.754;2022-12-07T06:36:16;16.07;;;5.13;;
76863;SDS011;65834;52.364;9.754;2022-12-07T06:38:52;16.70;;;5.00;;
76863;SDS011;65834;52.364;9.754;2022-12-07T06:41:22;14.87;;;5.53;;
76863;SDS011;65834;52.364;9.754;2022-12-07T06:43:52;13.50;;;5.03;;
76863;SDS011;65834;52.364;9.754;2022-12-07T06:46:22;19.50;;;5.67;;
76863;SDS011;65834;52.364;9.754;2022-12-07T06:48:52;15.87;;;5.43;;
76863;SDS011;65834;52.364;9.754;2022-12-07T06:51:24;15.90;;;5.10;;
76863;SDS011;65834;52.364;9.754;2022-12-07T06:53:54;16.55;;;5.70;;
76863;SDS011;65834;52.364;9.754;2022-12-07T06:56:24;19.30;;;5.50;;
76863;SDS011;65834;52.364;9.754;2022-12-07T06:58:55;18.73;;;5.43;;
76863;SDS011;65834;52.364;9.754;2022-12-07T07:01:24;15.97;;;4.97;;
76863;SDS011;65834;52.364;9.754;2022-12-07T07:03:54;14.57;;;6.07;;
76863;SDS011;65834;52.364;9.754;2022-12-07T07:06:26;15.60;;;4.60;;
76863;SDS011;65834;52.364;9.754;2022-12-07T07:08:56;13.82;;;3.90;;
76863;SDS011;65834;52.364;9.754;2022-12-07T07:11:25;15.70;;;5.03;;
76863;SDS011;65834;52.364;9.754;2022-12-07T07:13:55;13.87;;;4.30;;
76863;SDS011;65834;52.364;9.754;2022-12-07T07:16:28;11.97;;;3.73;;
76863;SDS011;65834;52.364;9.754;2022-12-07T07:18:58;14.23;;;4.10;;
76863;SDS011;65834;52.364;9.754;2022-12-07T07:21:31;12.40;;;3.47;;
76863;SDS011;65834;52.364;9.754;2022-12-07T07:24:00;11.88;;;4.10;;
76863;SDS011;65834;52.364;9.754;2022-12-07T07:26:30;11.37;;;3.77;;
76863;SDS011;65834;52.364;9.754;2022-12-07T07:28:59;14.17;;;4.03;;
76863;SDS011;65834;52.364;9.754;2022-12-07T07:31:29;12.53;;;3.10;;
76863;SDS011;65834;52.364;9.754;2022-12-07T07:34:01;13.35;;;3.55;;
76863;SDS011;65834;52.364;9.754;2022-12-07T07:36:33;12.20;;;3.87;;
76863;SDS011;65834;52.364;9.754;2022-12-07T07:39:03;11.63;;;3.42;;
76863;SDS011;65834;52.364;9.754;2022-12-07T07:41:33;11.13;;;3.83;;
76863;SDS011;65834;52.364;9.754;2022-12-07T07:44:02;12.47;;;3.70;;
76863;SDS011;65834;52.364;9.754;2022-12-07T07:46:32;11.77;;;3.27;;
76863;SDS011;65834;52.364;9.754;2022-12-07T07:49:02;12.93;;;3.00;;
76863;SDS011;65834;52.364;9.754;2022-12-07T07:51:34;12.70;;;3.73;;
76863;SDS011;65834;52.364;9.754;2022-12-07T07:54:04;8.82;;;2.67;;
76863;SDS011;65834;52.364;9.754;2022-12-07T07:56:34;8.30;;;2.57;;
76863;SDS011;65834;52.364;9.754;2022-12-07T07:59:04;12.47;;;5.10;;
76863;SDS011;65834;52.364;9.754;2022-12-07T08:01:33;10.33;;;2.77;;
76863;SDS011;65834;52.364;9.754;2022-12-07T08:04:03;10.30;;;2.80;;
76863;SDS011;65834;52.364;9.754;2022-12-07T08:06:36;10.10;;;2.40;;
76863;SDS011;65834;52.364;9.754;2022-12-07T08:09:05;8.38;;;2.00;;
76863;SDS011;65834;52.364;9.754;2022-12-07T08:11:35;6.50;;;1.70;;
76863;SDS011;65834;52.364;9.754;2022-12-07T08:14:05;10.70;;;3.10;;
76863;SDS011;65834;52.364;9.754;2022-12-07T08:16:34;8.80;;;2.30;;
76863;SDS011;65834;52.364;9.754;2022-12-07T08:19:04;9.90;;;2.57;;
76863;SDS011;65834;52.364;9.754;2022-12-07T08:21:36;8.03;;;2.17;;
76863;SDS011;65834;52.364;9.754;2022-12-07T08:24:06;10.50;;;2.40;;
76863;SDS011;65834;52.364;9.754;2022-12-07T08:26:36;9.67;;;2.37;;
76863;SDS011;65834;52.364;9.754;2022-12-07T08:29:06;8.77;;;3.47;;
76863;SDS011;65834;52.364;9.754;2022-12-07T08:31:35;11.70;;;3.13;;
76863;SDS011;65834;52.364;9.754;2022-12-07T08:34:06;8.73;;;2.17;;
76863;SDS011;65834;52.364;9.754;2022-12-07T08:36:38;10.47;;;2.30;;
76863;SDS011;65834;52.364;9.754;2022-12-07T08:39:08;11.27;;;2.20;;
76863;SDS011;65834;52.364;9.754;2022-12-07T08:41:57;9.27;;;2.33;;
76863;SDS011;65834;52.364;9.754;2022-12-07T08:44:27;15.90;;;2.20;;
76863;SDS011;65834;52.364;9.754;2022-12-07T08:46:58;6.47;;;2.03;;
76863;SDS011;65834;52.364;9.754;2022-12-07T08:49:30;6.23;;;1.80;;
76863;SDS011;65834;52.364;9.754;2022-12-07T08:52:05;7.55;;;3.40;;
76863;SDS011;65834;52.364;9.754;2022-12-07T08:54:34;8.30;;;2.28;;
76863;SDS011;65834;52.364;9.754;2022-12-07T08:57:07;6.27;;;1.93;;
76863;SDS011;65834;52.364;9.754;2022-12-07T08:59:38;8.77;;;2.20;;
76863;SDS011;65834;52.364;9.754;2022-12-07T09:02:07;9.03;;;1.70;;
76863;SDS011;65834;52.364;9.754;2022-12-07T09:04:37;3.83;;;1.53;;
76863;SDS011;65834;52.364;9.754;2022-12-07T09:07:09;7.53;;;2.10;;
76863;SDS011;65834;52.364;9.754;2022-12-07T09:09:39;6.32;;;1.92;;
76863;SDS011;65834;52.364;9.754;2022-12-07T09:12:09;6.90;;;1.87;;
76863;SDS011;65834;52.364;9.754;2022-12-07T09:14:38;5.17;;;1.87;;
76863;SDS011;65834;52.364;9.754;2022-12-07T09:17:09;6.47;;;2.10;;
76863;SDS011;65834;52.364;9.754;2022-12-07T09:19:40;8.67;;;2.00;;
76863;SDS011;65834;52.364;9.754;2022-12-07T09:22:12;7.87;;;1.73;;
76863;SDS011;65834;52.364;9.754;2022-12-07T09:24:42;7.82;;;1.65;;
76863;SDS011;65834;52.364;9.754;2022-12-07T09:27:12;7.27;;;1.80;;
76863;SDS011;65834;52.364;9.754;2022-12-07T09:29:44;6.53;;;1.70;;
76863;SDS011;65834;52.364;9.754;2022-12-07T09:32:13;7.10;;;1.83;;
76863;SDS011;65834;52.364;9.754;2022-12-07T09:34:43;9.43;;;2.50;;
76863;SDS011;65834;52.364;9.754;2022-12-07T09:37:15;5.67;;;2.20;;
76863;SDS011;65834;52.364;9.754;2022-12-07T09:39:45;10.52;;;2.53;;
76863;SDS011;65834;52.364;9.754;2022-12-07T09:42:21;7.57;;;1.93;;
76863;SDS011;65834;52.364;9.754;2022-12-07T09:44:56;4.50;;;1.63;;
76863;SDS011;65834;52.364;9.754;2022-12-07T09:47:28;6.97;;;1.98;;
76863;SDS011;65834;52.364;9.754;2022-12-07T09:50:04;6.77;;;1.77;;
76863;SDS011;65834;52.364;9.754;2022-12-07T09:52:39;5.97;;;1.60;;
76863;SDS011;65834;52.364;9.754;2022-12-07T09:55:11;5.40;;;1.70;;
76863;SDS011;65834;52.364;9.754;2022-12-07T09:57:42;4.85;;;1.42;;
76863;SDS011;65834;52.364;9.754;2022-12-07T10:00:14;4.30;;;1.43;;
76863;SDS011;65834;52.364;9.754;2022-12-07T10:02:49;5.07;;;1.50;;
76863;SDS011;65834;52.364;9.754;2022-12-07T10:05:24;9.73;;;2.10;;
76863;SDS011;65834;52.364;9.754;2022-12-07T10:08:00;6.67;;;1.50;;
76863;SDS011;65834;52.364;9.754;2022-12-07T10:10:31;4.25;;;1.50;;
76863;SDS011;65834;52.364;9.754;2022-12-07T10:13:05;10.20;;;2.53;;
76863;SDS011;65834;52.364;9.754;2022-12-07T10:15:44;5.85;;;1.33;;
76863;SDS011;65834;52.364;9.754;2022-12-07T10:18:20;8.07;;;2.40;;
76863;SDS011;65834;52.364;9.754;2022-12-07T10:21:05;4.53;;;1.40;;
76863;SDS011;65834;52.364;9.754;2022-12-07T10:23:42;6.13;;;1.47;;
76863;SDS011;65834;52.364;9.754;2022-12-07T10:26:31;5.03;;;1.33;;
76863;SDS011;65834;52.364;9.754;2022-12-07T10:31:42;8.37;;;2.37;;
76863;SDS011;65834;52.364;9.754;2022-12-07T10:34:19;8.90;;;1.70;;
76863;SDS011;65834;52.364;9.754;2022-12-07T10:36:51;6.57;;;1.60;;
76863;SDS011;65834;52.364;9.754;2022-12-07T10:39:23;3.10;;;1.23;;
76863;SDS011;65834;52.364;9.754;2022-12-07T10:41:53;8.77;;;2.17;;
76863;SDS011;65834;52.364;9.754;2022-12-07T10:44:25;5.90;;;1.60;;
76863;SDS011;65834;52.364;9.754;2022-12-07T10:46:59;7.27;;;1.83;;
76863;SDS011;65834;52.364;9.754;2022-12-07T10:49:43;5.30;;;1.53;;
76863;SDS011;65834;52.364;9.754;2022-12-07T10:52:29;8.77;;;1.47;;
76863;SDS011;65834;52.364;9.754;2022-12-07T10:55:15;6.03;;;1.60;;
76863;SDS011;65834;52.364;9.754;2022-12-07T10:57:55;10.87;;;2.10;;
76863;SDS011;65834;52.364;9.754;2022-12-07T11:00:36;5.77;;;1.60;;
76863;SDS011;65834;52.364;9.754;2022-12-07T11:03:18;8.07;;;2.17;;
76863;SDS011;65834;52.364;9.754;2022-12-07T11:06:00;9.03;;;1.90;;
76863;SDS011;65834;52.364;9.754;2022-12-07T11:08:43;7.97;;;1.93;;
76863;SDS011;65834;52.364;9.754;2022-12-07T11:11:22;8.17;;;2.00;;
76863;SDS011;65834;52.364;9.754;2022-12-07T11:13:56;7.23;;;1.97;;
76863;SDS011;65834;52.364;9.754;2022-12-07T11:16:44;7.17;;;1.83;;
76863;SDS011;65834;52.364;9.754;2022-12-07T11:19:27;5.40;;;1.40;;
76863;SDS011;65834;52.364;9.754;2022-12-07T11:22:19;6.80;;;1.80;;
76863;SDS011;65834;52.364;9.754;2022-12-07T11:24:56;8.07;;;2.23;;
76863;SDS011;65834;52.364;9.754;2022-12-07T11:27:36;3.27;;;0.90;;
76863;SDS011;65834;52.364;9.754;2022-12-07T11:30:11;6.03;;;1.43;;
76863;SDS011;65834;52.364;9.754;2022-12-07T11:32:47;4.10;;;1.17;;
76863;SDS011;65834;52.364;9.754;2022-12-07T11:35:24;5.10;;;1.33;;
76863;SDS011;65834;52.364;9.754;2022-12-07T11:38:08;3.38;;;1.10;;
76863;SDS011;65834;52.364;9.754;2022-12-07T11:40:47;3.00;;;1.30;;
76863;SDS011;65834;52.364;9.754;2022-12-07T11:43:23;4.20;;;1.50;;
76863;SDS011;65834;52.364;9.754;2022-12-07T11:45:57;3.50;;;1.40;;
76863;SDS011;65834;52.364;9.754;2022-12-07T11:48:32;4.87;;;1.33;;
76863;SDS011;65834;52.364;9.754;2022-12-07T11:51:06;3.97;;;1.30;;
76863;SDS011;65834;52.364;9.754;2022-12-07T11:53:39;6.13;;;1.70;;
76863;SDS011;65834;52.364;9.754;2022-12-07T11:56:15;8.40;;;2.03;;
76863;SDS011;65834;52.364;9.754;2022-12-07T11:58:51;4.10;;;1.27;;
76863;SDS011;65834;52.364;9.754;2022-12-07T12:01:35;4.73;;;1.40;;
76863;SDS011;65834;52.364;9.754;2022-12-07T12:04:20;5.78;;;1.55;;
76863;SDS011;65834;52.364;9.754;2022-12-07T12:06:56;5.50;;;1.40;;
76863;SDS011;65834;52.364;9.754;2022-12-07T12:09:48;9.33;;;1.67;;
76863;SDS011;65834;52.364;9.754;2022-12-07T12:12:26;5.53;;;1.97;;
76863;SDS011;65834;52.364;9.754;2022-12-07T12:15:33;8.13;;;1.87;;
76863;SDS011;65834;52.364;9.754;2022-12-07T12:18:30;7.07;;;1.87;;
76863;SDS011;65834;52.364;9.754;2022-12-07T12:21:12;8.13;;;2.43;;
76863;SDS011;65834;52.364;9.754;2022-12-07T12:26:17;7.77;;;2.00;;
76863;SDS011;65834;52.364;9.754;2022-12-07T12:28:50;5.45;;;1.77;;
76863;SDS011;65834;52.364;9.754;2022-12-07T12:31:35;7.30;;;2.13;;
76863;SDS011;65834;52.364;9.754;2022-12-07T12:37:01;8.60;;;2.40;;
76863;SDS011;65834;52.364;9.754;2022-12-07T12:39:31;11.83;;;3.50;;
76863;SDS011;65834;52.364;9.754;2022-12-07T12:42:05;10.97;;;3.13;;
76863;SDS011;65834;52.364;9.754;2022-12-07T12:47:55;7.10;;;1.90;;
76863;SDS011;65834;52.364;9.754;2022-12-07T12:50:27;6.80;;;2.00;;
76863;SDS011;65834;52.364;9.754;2022-12-07T13:01:51;8.53;;;2.10;;
76863;SDS011;65834;52.364;9.754;2022-12-07T13:04:34;9.27;;;2.40;;
76863;SDS011;65834;52.364;9.754;2022-12-07T13:07:10;9.83;;;2.20;;
76863;SDS011;65834;52.364;9.754;2022-12-07T13:09:42;7.03;;;1.87;;
76863;SDS011;65834;52.364;9.754;2022-12-07T13:12:14;11.30;;;2.58;;
76863;SDS011;65834;52.364;9.754;2022-12-07T13:14:53;10.63;;;3.50;;
76863;SDS011;65834;52.364;9.754;2022-12-07T13:23:18;9.17;;;2.10;;
76863;SDS011;65834;52.364;9.754;2022-12-07T13:26:09;8.83;;;2.27;;
76863;SDS011;65834;52.364;9.754;2022-12-07T13:28:44;7.47;;;1.77;;
76863;SDS011;65834;52.364;9.754;2022-12-07T13:31:19;7.93;;;2.10;;
76863;SDS011;65834;52.364;9.754;2022-12-07T13:33:55;9.00;;;2.17;;
76863;SDS011;65834;52.364;9.754;2022-12-07T13:36:27;7.20;;;1.80;;
76863;SDS011;65834;52.364;9.754;2022-12-07T13:39:14;5.73;;;1.67;;
76863;SDS011;65834;52.364;9.754;2022-12-07T13:41:49;9.20;;;1.97;;
76863;SDS011;65834;52.364;9.754;2022-12-07T13:44:21;6.30;;;1.42;;
76863;SDS011;65834;52.364;9.754;2022-12-07T13:46:53;7.60;;;1.83;;
76863;SDS011;65834;52.364;9.754;2022-12-07T13:49:30;11.63;;;3.20;;
76863;SDS011;65834;52.364;9.754;2022-12-07T13:52:12;10.97;;;2.30;;
76863;SDS011;65834;52.364;9.754;2022-12-07T13:54:45;10.30;;;1.93;;
76863;SDS011;65834;52.364;9.754;2022-12-07T13:57:16;7.77;;;1.80;;
76863;SDS011;65834;52.364;9.754;2022-12-07T13:59:46;9.13;;;1.93;;
76863;SDS011;65834;52.364;9.754;2022-12-07T14:02:17;6.00;;;1.47;;
76863;SDS011;65834;52.364;9.754;2022-12-07T14:04:49;9.85;;;2.15;;
76863;SDS011;65834;52.364;9.754;2022-12-07T14:07:23;9.47;;;2.03;;
76863;SDS011;65834;52.364;9.754;2022-12-07T14:09:55;6.80;;;1.93;;
76863;SDS011;65834;52.364;9.754;2022-12-07T14:12:26;9.63;;;2.17;;
76863;SDS011;65834;52.364;9.754;2022-12-07T14:14:57;7.60;;;2.07;;
76863;SDS011;65834;52.364;9.754;2022-12-07T14:17:29;6.80;;;1.73;;
76863;SDS011;65834;52.364;9.754;2022-12-07T14:19:59;10.80;;;1.90;;
76863;SDS011;65834;52.364;9.754;2022-12-07T14:22:34;9.98;;;1.98;;
76863;SDS011;65834;52.364;9.754;2022-12-07T14:25:16;12.67;;;2.30;;
76863;SDS011;65834;52.364;9.754;2022-12-07T14:27:49;9.73;;;2.00;;
76863;SDS011;65834;52.364;9.754;2022-12-07T14:30:23;9.40;;;2.10;;
76863;SDS011;65834;52.364;9.754;2022-12-07T14:32:55;8.30;;;1.70;;
76863;SDS011;65834;52.364;9.754;2022-12-07T14:35:29;7.03;;;1.50;;
76863;SDS011;65834;52.364;9.754;2022-12-07T14:38:01;8.43;;;2.40;;
76863;SDS011;65834;52.364;9.754;2022-12-07T14:40:31;7.00;;;1.58;;
76863;SDS011;65834;52.364;9.754;2022-12-07T14:43:02;7.57;;;1.80;;
76863;SDS011;65834;52.364;9.754;2022-12-07T14:45:33;5.00;;;1.67;;
76863;SDS011;65834;52.364;9.754;2022-12-07T14:48:03;8.03;;;1.90;;
76863;SDS011;65834;52.364;9.754;2022-12-07T14:50:53;9.77;;;2.00;;
76863;SDS011;65834;52.364;9.754;2022-12-07T14:53:46;7.17;;;2.20;;
76863;SDS011;65834;52.364;9.754;2022-12-07T14:56:23;7.53;;;2.67;;
76863;SDS011;65834;52.364;9.754;2022-12-07T14:58:54;6.67;;;1.77;;
76863;SDS011;65834;52.364;9.754;2022-12-07T15:01:23;9.63;;;2.57;;
76863;SDS011;65834;52.364;9.754;2022-12-07T15:03:53;9.13;;;2.37;;
76863;SDS011;65834;52.364;9.754;2022-12-07T15:06:23;8.90;;;1.93;;
76863;SDS011;65834;52.364;9.754;2022-12-07T15:08:55;8.80;;;2.10;;
76863;SDS011;65834;52.364;9.754;2022-12-07T15:11:24;7.47;;;2.40;;
76863;SDS011;65834;52.364;9.754;2022-12-07T15:13:54;10.60;;;3.00;;
76863;SDS011;65834;52.364;9.754;2022-12-07T15:16:40;7.00;;;2.00;;
76863;SDS011;65834;52.364;9.754;2022-12-07T15:19:31;6.77;;;1.97;;
76863;SDS011;65834;52.364;9.754;2022-12-07T15:22:00;8.00;;;2.50;;
76863;SDS011;65834;52.364;9.754;2022-12-07T15:24:33;8.00;;;2.47;;
76863;SDS011;65834;52.364;9.754;2022-12-07T15:27:03;8.20;;;2.20;;
76863;SDS011;65834;52.364;9.754;2022-12-07T15:29:33;9.63;;;2.60;;
76863;SDS011;65834;52.364;9.754;2022-12-07T15:32:02;6.20;;;2.33;;
76863;SDS011;65834;52.364;9.754;2022-12-07T15:34:32;10.17;;;2.53;;
76863;SDS011;65834;52.364;9.754;2022-12-07T15:37:05;10.30;;;2.77;;
76863;SDS011;65834;52.364;9.754;2022-12-07T15:39:38;10.73;;;2.53;;
76863;SDS011;65834;52.364;9.754;2022-12-07T15:42:07;8.73;;;2.60;;